createdAt,value
2018-07-02T00:02:50.124Z,19.80
2018-07-02T00:05:19.387Z,19.80
2018-07-02T00:07:49.126Z,19.70
2018-07-02T00:10:19.087Z,19.70
2018-07-02T00:12:48.978Z,19.70
2018-07-02T00:15:18.187Z,19.60
2018-07-02T00:17:47.395Z,19.60
2018-07-02T00:20:16.509Z,19.50
2018-07-02T00:25:14.572Z,19.40
2018-07-02T00:27:43.881Z,19.40
2018-07-02T00:30:12.690Z,19.40
2018-07-02T00:32:42.851Z,19.30
2018-07-02T00:35:12.207Z,19.30
2018-07-02T00:37:41.396Z,19.30
2018-07-02T00:47:37.762Z,19.10
2018-07-02T00:50:06.838Z,19.00
2018-07-02T00:52:36.341Z,19.00
2018-07-02T00:55:06.214Z,19.00
2018-07-02T00:57:35.219Z,18.90
2018-07-02T01:00:14.594Z,18.90
2018-07-02T01:02:44.869Z,18.90
2018-07-02T01:05:15.206Z,18.80
2018-07-02T01:07:45.609Z,18.80
2018-07-02T01:10:15.566Z,18.80
2018-07-02T01:12:45.134Z,18.70
2018-07-02T01:15:14.895Z,18.70
2018-07-02T01:17:44.784Z,18.70
2018-07-02T01:20:13.892Z,18.60
2018-07-02T01:22:43.065Z,18.60
2018-07-02T01:27:41.206Z,18.50
2018-07-02T01:30:10.492Z,18.40
2018-07-02T01:32:39.596Z,18.40
2018-07-02T01:35:09.312Z,18.30
2018-07-02T01:37:38.373Z,18.30
2018-07-02T01:40:07.568Z,18.20
2018-07-02T01:42:36.689Z,18.20
2018-07-02T01:45:06.498Z,18.20
2018-07-02T01:47:35.543Z,18.10
2018-07-02T01:50:04.551Z,18.10
2018-07-02T01:52:33.727Z,18.00
2018-07-02T01:55:03.146Z,18.00
2018-07-02T01:57:32.072Z,17.90
2018-07-02T02:00:01.630Z,17.90
2018-07-02T02:04:59.253Z,17.80
2018-07-02T02:07:28.820Z,17.80
2018-07-02T02:09:58.675Z,17.70
2018-07-02T02:12:28.279Z,17.70
2018-07-02T02:17:26.691Z,17.70
2018-07-02T02:19:55.816Z,17.70
2018-07-02T02:22:25.144Z,17.60
2018-07-02T02:27:23.540Z,17.60
2018-07-02T02:32:23.766Z,17.50
2018-07-02T02:37:25.081Z,17.40
2018-07-02T02:39:54.129Z,17.40
2018-07-02T02:42:23.551Z,17.40
2018-07-02T02:44:52.739Z,17.30
2018-07-02T02:49:50.697Z,17.30
2018-07-02T02:52:19.588Z,17.30
2018-07-02T02:54:48.509Z,17.20
2018-07-02T02:57:18.392Z,17.20
2018-07-02T02:59:47.684Z,17.20
2018-07-02T03:02:16.731Z,17.20
2018-07-02T03:04:45.966Z,17.20
2018-07-02T03:07:15.616Z,17.10
2018-07-02T03:09:44.792Z,17.10
2018-07-02T03:12:14.620Z,17.10
2018-07-02T03:14:44.127Z,17.00
2018-07-02T03:17:13.526Z,17.00
2018-07-02T03:19:43.565Z,17.00
2018-07-02T03:24:41.752Z,16.90
2018-07-02T03:27:10.664Z,16.90
2018-07-02T03:29:40.630Z,16.90
2018-07-02T03:32:09.805Z,16.90
2018-07-02T03:34:39.180Z,16.90
2018-07-02T03:37:08.546Z,16.90
2018-07-02T03:39:37.860Z,16.90
2018-07-02T03:42:07.293Z,16.80
2018-07-02T03:44:36.761Z,16.80
2018-07-02T03:47:06.968Z,16.80
2018-07-02T03:49:36.247Z,16.80
2018-07-02T03:52:06.807Z,16.80
2018-07-02T03:54:35.955Z,16.80
2018-07-02T03:57:05.224Z,16.80
2018-07-02T03:59:34.337Z,16.80
2018-07-02T04:02:02.568Z,16.80
2018-07-02T04:04:30.796Z,16.80
2018-07-02T04:11:55.028Z,16.80
2018-07-02T04:14:23.255Z,16.80
2018-07-02T04:16:51.514Z,16.80
2018-07-02T04:19:19.740Z,16.80
2018-07-02T04:21:47.975Z,16.80
2018-07-02T04:24:16.210Z,16.80
2018-07-02T04:26:44.435Z,16.90
2018-07-02T04:29:12.832Z,16.80
2018-07-02T04:31:41.063Z,16.80
2018-07-02T04:34:09.323Z,16.80
2018-07-02T04:36:37.565Z,16.90
2018-07-02T04:39:07.647Z,16.80
2018-07-02T04:41:36.134Z,16.90
2018-07-02T04:44:04.407Z,16.90
2018-07-02T04:46:32.635Z,16.90
2018-07-02T04:49:00.967Z,16.90
2018-07-02T04:51:29.219Z,16.90
2018-07-02T04:53:57.467Z,17.00
2018-07-02T04:56:25.739Z,17.00
2018-07-02T04:58:53.991Z,17.00
2018-07-02T05:01:22.225Z,17.10
2018-07-02T05:03:50.420Z,17.10
2018-07-02T05:08:46.659Z,17.20
2018-07-02T05:11:15.042Z,17.20
2018-07-02T05:13:43.347Z,17.20
2018-07-02T05:16:11.547Z,17.30
2018-07-02T05:18:39.744Z,17.30
2018-07-02T05:21:08.087Z,17.30
2018-07-02T05:23:36.304Z,17.40
2018-07-02T05:26:04.763Z,17.40
2018-07-02T05:28:33.045Z,17.50
2018-07-02T05:31:01.280Z,17.50
2018-07-02T05:33:29.535Z,17.60
2018-07-02T05:35:57.928Z,17.60
2018-07-02T05:38:26.180Z,17.70
2018-07-02T05:40:54.663Z,17.80
2018-07-02T05:43:22.895Z,17.80
2018-07-02T05:45:52.334Z,17.90
2018-07-02T05:48:21.981Z,17.90
2018-07-02T05:50:52.666Z,18.00
2018-07-02T05:55:51.350Z,18.10
2018-07-02T05:58:21.397Z,18.20
2018-07-02T06:00:50.796Z,18.30
2018-07-02T06:03:20.003Z,18.30
2018-07-02T06:05:49.569Z,18.40
2018-07-02T06:08:18.969Z,18.40
2018-07-02T06:10:48.441Z,18.50
2018-07-02T06:13:17.719Z,18.50
2018-07-02T06:15:47.110Z,18.60
2018-07-02T06:18:16.828Z,18.70
2018-07-02T06:20:47.210Z,18.80
2018-07-02T06:23:16.721Z,19.00
2018-07-02T06:25:45.745Z,19.10
2018-07-02T06:28:16.006Z,19.20
2018-07-02T06:30:45.159Z,19.20
2018-07-02T06:33:14.703Z,19.40
2018-07-02T06:35:43.676Z,19.40
2018-07-02T06:38:12.879Z,19.50
2018-07-02T06:40:42.296Z,19.60
2018-07-02T06:43:11.339Z,19.70
2018-07-02T06:45:40.897Z,19.80
2018-07-02T06:48:10.692Z,19.90
2018-07-02T06:50:39.652Z,20.00
2018-07-02T06:53:08.649Z,20.10
2018-07-02T06:55:37.691Z,20.20
2018-07-02T06:58:07.852Z,20.30
2018-07-02T07:00:37.190Z,20.40
2018-07-02T07:03:06.867Z,20.50
2018-07-02T07:05:36.658Z,20.60
2018-07-02T07:08:06.436Z,20.70
2018-07-02T07:10:35.484Z,20.80
2018-07-02T07:13:05.247Z,20.90
2018-07-02T07:15:34.822Z,20.90
2018-07-02T07:18:03.959Z,21.00
2018-07-02T07:20:33.004Z,21.10
2018-07-02T07:23:02.357Z,21.30
2018-07-02T07:25:31.415Z,21.40
2018-07-02T07:28:00.817Z,21.50
2018-07-02T07:30:30.346Z,21.60
2018-07-02T07:32:59.756Z,21.70
2018-07-02T07:35:29.095Z,21.80
2018-07-02T07:37:59.210Z,21.80
2018-07-02T07:40:28.125Z,21.90
2018-07-02T07:42:57.955Z,22.00
2018-07-02T07:45:27.872Z,22.10
2018-07-02T07:47:57.502Z,22.20
2018-07-02T07:50:26.716Z,22.30
2018-07-02T07:52:56.149Z,22.40
2018-07-02T07:57:54.396Z,22.60
2018-07-02T08:00:24.668Z,22.70
2018-07-02T08:05:23.860Z,22.90
2018-07-02T08:07:53.272Z,22.90
2018-07-02T08:10:22.712Z,23.00
2018-07-02T08:12:52.282Z,23.10
2018-07-02T08:15:22.953Z,23.10
2018-07-02T08:17:52.180Z,23.20
2018-07-02T08:20:21.498Z,23.30
2018-07-02T08:22:51.232Z,23.30
2018-07-02T08:25:20.960Z,23.40
2018-07-02T08:27:51.278Z,23.50
2018-07-02T08:32:50.084Z,23.60
2018-07-02T08:35:20.871Z,23.60
2018-07-02T08:37:50.782Z,23.70
2018-07-02T08:40:20.670Z,23.70
2018-07-02T08:42:50.080Z,23.80
2018-07-02T08:45:19.567Z,23.90
2018-07-02T08:47:49.035Z,24.00
2018-07-02T08:50:18.681Z,24.10
2018-07-02T08:55:16.943Z,24.20
2018-07-02T08:57:46.387Z,24.30
2018-07-02T09:02:45.313Z,24.30
2018-07-02T09:05:15.268Z,24.30
2018-07-02T09:07:46.726Z,24.40
2018-07-02T09:10:16.218Z,24.40
2018-07-02T09:12:45.918Z,24.50
2018-07-02T09:15:15.973Z,24.50
2018-07-02T09:17:45.279Z,24.50
2018-07-02T09:20:14.556Z,24.50
2018-07-02T09:22:44.158Z,24.60
2018-07-02T09:25:13.987Z,24.60
2018-07-02T09:27:43.223Z,24.70
2018-07-02T09:30:13.013Z,24.70
2018-07-02T09:32:42.999Z,24.90
2018-07-02T09:35:12.433Z,24.90
2018-07-02T09:37:41.688Z,25.00
2018-07-02T09:40:11.298Z,25.10
2018-07-02T09:42:40.534Z,25.10
2018-07-02T09:45:11.647Z,25.20
2018-07-02T09:47:41.445Z,25.20
2018-07-02T09:50:11.044Z,25.30
2018-07-02T09:52:41.301Z,25.30
2018-07-02T09:55:11.079Z,25.40
2018-07-02T09:57:40.926Z,25.50
2018-07-02T10:00:10.395Z,25.50
2018-07-02T10:02:39.831Z,25.50
2018-07-02T10:05:09.411Z,25.50
2018-07-02T10:07:39.539Z,25.50
2018-07-02T10:10:09.067Z,25.60
2018-07-02T10:12:38.803Z,25.70
2018-07-02T10:15:08.368Z,25.70
2018-07-02T10:17:38.602Z,25.80
2018-07-02T10:20:08.224Z,25.90
2018-07-02T10:22:38.289Z,26.00
2018-07-02T10:25:08.428Z,26.00
2018-07-02T10:27:37.945Z,26.10
2018-07-02T10:30:07.598Z,26.20
2018-07-02T10:32:37.744Z,26.20
2018-07-02T10:35:08.381Z,26.20
2018-07-02T10:37:38.117Z,26.20
2018-07-02T10:40:08.547Z,26.30
2018-07-02T10:42:38.090Z,26.30
2018-07-02T10:45:07.493Z,26.30
2018-07-02T10:50:06.212Z,26.30
2018-07-02T10:52:36.480Z,26.30
2018-07-02T10:55:06.748Z,26.40
2018-07-02T10:57:35.918Z,26.50
2018-07-02T11:00:05.895Z,26.50
2018-07-02T11:02:35.682Z,26.60
2018-07-02T11:05:05.966Z,26.60
2018-07-02T11:07:35.715Z,26.70
2018-07-02T11:12:34.055Z,26.80
2018-07-02T11:15:03.964Z,26.90
2018-07-02T11:20:03.542Z,27.00
2018-07-02T11:22:33.088Z,27.10
2018-07-02T11:25:03.430Z,27.10
2018-07-02T11:27:32.472Z,27.10
2018-07-02T11:30:02.034Z,27.20
2018-07-02T11:32:32.232Z,27.20
2018-07-02T11:35:01.855Z,27.20
2018-07-02T11:39:59.683Z,27.20
2018-07-02T11:42:29.169Z,27.30
2018-07-02T11:44:57.412Z,27.30
2018-07-02T11:47:25.640Z,27.40
2018-07-02T11:49:53.911Z,27.50
2018-07-02T11:52:22.173Z,27.50
2018-07-02T11:54:50.398Z,27.50
2018-07-02T11:57:18.618Z,27.50
2018-07-02T11:59:47.024Z,27.50
2018-07-02T12:02:15.250Z,27.60
2018-07-02T12:04:43.524Z,27.70
2018-07-02T12:07:11.774Z,27.80
2018-07-02T12:09:40.043Z,27.90
2018-07-02T12:12:08.266Z,28.00
2018-07-02T12:17:04.468Z,28.20
2018-07-02T12:19:32.706Z,28.30
2018-07-02T12:22:00.924Z,28.40
2018-07-02T12:24:29.174Z,28.50
2018-07-02T12:26:57.443Z,28.70
2018-07-02T12:29:25.728Z,28.80
2018-07-02T12:31:53.993Z,28.80
2018-07-02T12:34:22.231Z,28.90
2018-07-02T12:36:50.471Z,28.80
2018-07-02T12:39:18.704Z,28.90
2018-07-02T12:44:15.156Z,28.90
2018-07-02T12:46:44.590Z,28.90
2018-07-02T12:49:12.785Z,28.90
2018-07-02T12:51:41.237Z,29.10
2018-07-02T12:54:09.456Z,29.10
2018-07-02T12:56:37.668Z,29.30
2018-07-02T12:59:06.206Z,29.30
2018-07-02T13:01:34.428Z,29.40
2018-07-02T13:06:30.664Z,29.40
2018-07-02T13:08:58.891Z,29.50
2018-07-02T13:11:27.119Z,29.50
2018-07-02T13:16:23.502Z,29.60
2018-07-02T13:18:51.587Z,29.70
2018-07-02T13:21:19.819Z,29.80
2018-07-02T13:23:48.048Z,29.90
2018-07-02T13:26:16.285Z,30.10
2018-07-02T13:28:44.510Z,30.00
2018-07-02T13:31:12.723Z,30.00
2018-07-02T13:33:40.989Z,30.10
2018-07-02T13:36:09.199Z,30.20
2018-07-02T13:38:37.464Z,30.20
2018-07-02T13:41:05.718Z,30.20
2018-07-02T13:43:33.939Z,30.30
2018-07-02T13:46:02.168Z,30.30
2018-07-02T13:48:30.425Z,30.40
2018-07-02T13:53:27.248Z,31.70
2018-07-02T13:55:55.499Z,34.00
2018-07-02T13:58:23.783Z,36.50
2018-07-02T14:00:52.033Z,38.80
2018-07-02T14:03:20.309Z,41.10
2018-07-02T14:05:48.568Z,43.10
2018-07-02T14:08:16.804Z,44.80
2018-07-02T14:10:45.014Z,46.00
2018-07-02T14:13:13.253Z,47.00
2018-07-02T14:15:41.495Z,47.50
2018-07-02T14:18:09.709Z,48.30
2018-07-02T14:20:38.108Z,48.60
2018-07-02T14:23:06.545Z,49.50
2018-07-02T14:25:34.788Z,50.80
2018-07-02T14:28:03.004Z,51.80
2018-07-02T14:30:31.236Z,53.10
2018-07-02T14:32:59.504Z,54.60
2018-07-02T14:35:27.744Z,55.70
2018-07-02T14:37:55.999Z,56.40
2018-07-02T14:40:24.275Z,56.90
2018-07-02T14:42:52.481Z,57.70
2018-07-02T14:45:20.876Z,58.00
2018-07-02T14:47:48.972Z,58.00
2018-07-02T14:50:17.324Z,58.00
2018-07-02T14:52:45.585Z,57.70
2018-07-02T14:55:13.848Z,57.80
2018-07-02T15:00:10.153Z,58.20
2018-07-02T15:02:38.348Z,58.70
2018-07-02T15:05:06.687Z,59.30
2018-07-02T15:07:34.935Z,59.30
2018-07-02T15:10:03.216Z,59.10
2018-07-02T15:12:31.460Z,59.10
2018-07-02T15:14:59.691Z,59.30
2018-07-02T15:17:27.904Z,59.70
2018-07-02T15:19:56.352Z,60.00
2018-07-02T15:22:24.606Z,60.10
2018-07-02T15:24:52.887Z,59.90
2018-07-02T15:27:21.151Z,59.50
2018-07-02T15:29:49.387Z,59.30
2018-07-02T15:34:45.609Z,58.70
2018-07-02T15:37:13.867Z,58.70
2018-07-02T15:39:42.097Z,58.90
2018-07-02T15:42:10.349Z,58.90
2018-07-02T15:44:38.606Z,58.70
2018-07-02T15:47:06.856Z,58.90
2018-07-02T15:49:41.807Z,58.90
2018-07-02T15:52:10.060Z,58.20
2018-07-02T15:54:38.304Z,57.10
2018-07-02T15:59:34.556Z,53.90
2018-07-02T16:02:02.801Z,53.90
2018-07-02T16:04:31.019Z,52.30
2018-07-02T16:06:59.267Z,49.90
2018-07-02T16:09:27.491Z,47.40
2018-07-02T16:14:23.717Z,44.70
2018-07-02T16:16:51.959Z,43.90
2018-07-02T16:19:20.291Z,42.40
2018-07-02T16:21:48.565Z,41.00
2018-07-02T16:24:16.791Z,39.80
2018-07-02T16:26:45.042Z,38.70
2018-07-02T16:29:13.267Z,37.80
2018-07-02T16:31:41.507Z,37.00
2018-07-02T16:34:09.715Z,36.40
2018-07-02T16:36:37.972Z,35.90
2018-07-02T16:39:08.140Z,35.50
2018-07-02T16:41:36.602Z,35.10
2018-07-02T16:44:05.084Z,34.80
2018-07-02T16:46:33.369Z,34.90
2018-07-02T16:49:01.617Z,34.80
2018-07-02T16:51:29.863Z,34.80
2018-07-02T16:53:58.099Z,34.40
2018-07-02T16:56:26.368Z,34.00
2018-07-02T16:58:54.988Z,33.60
2018-07-02T17:01:24.713Z,33.20
2018-07-02T17:03:53.303Z,33.00
2018-07-02T17:06:22.631Z,32.80
2018-07-02T17:08:50.918Z,32.60
2018-07-02T17:11:19.180Z,32.50
2018-07-02T17:13:47.403Z,32.30
2018-07-02T17:18:43.624Z,31.90
2018-07-02T17:21:11.916Z,31.80
2018-07-02T17:23:40.144Z,31.70
2018-07-02T17:26:08.368Z,31.60
2018-07-02T17:28:36.595Z,32.00
2018-07-02T17:31:04.881Z,33.80
2018-07-02T17:33:33.112Z,35.40
2018-07-02T17:36:01.332Z,36.50
2018-07-02T17:38:29.579Z,36.70
2018-07-02T17:40:57.802Z,36.00
2018-07-02T17:43:26.061Z,35.40
2018-07-02T17:45:54.306Z,34.90
2018-07-02T17:48:22.574Z,34.60
2018-07-02T17:50:50.819Z,34.60
2018-07-02T17:53:19.035Z,34.90
2018-07-02T17:55:47.266Z,36.40
2018-07-02T17:58:15.632Z,38.20
2018-07-02T18:00:44.028Z,39.40
2018-07-02T18:03:12.280Z,40.50
2018-07-02T18:05:40.604Z,41.60
2018-07-02T18:08:08.870Z,42.50
2018-07-02T18:10:37.083Z,43.40
2018-07-02T18:13:05.451Z,44.00
2018-07-02T18:15:33.668Z,44.30
2018-07-02T18:18:01.918Z,44.30
2018-07-02T18:20:30.200Z,43.90
2018-07-02T18:22:58.408Z,41.70
2018-07-02T18:25:26.624Z,39.30
2018-07-02T18:27:55.060Z,37.40
2018-07-02T18:30:23.299Z,36.00
2018-07-02T18:32:51.554Z,34.90
2018-07-02T18:35:19.771Z,33.90
2018-07-02T18:37:48.022Z,33.10
2018-07-02T18:42:44.469Z,31.80
2018-07-02T18:45:12.776Z,31.40
2018-07-02T18:47:41.007Z,31.10
2018-07-02T18:50:09.271Z,30.80
2018-07-02T18:52:37.491Z,30.50
2018-07-02T18:55:05.949Z,30.30
2018-07-02T18:57:34.417Z,30.10
2018-07-02T19:00:02.879Z,29.90
2018-07-02T19:02:31.161Z,29.70
2018-07-02T19:04:59.389Z,29.50
2018-07-02T19:07:27.623Z,29.30
2018-07-02T19:09:55.883Z,29.10
2018-07-02T19:12:24.143Z,29.00
2018-07-02T19:14:52.467Z,28.90
2018-07-02T19:17:20.713Z,28.70
2018-07-02T19:19:48.975Z,28.50
2018-07-02T19:22:20.208Z,28.40
2018-07-02T19:24:48.803Z,28.30
2018-07-02T19:27:17.651Z,28.10
2018-07-02T19:29:46.200Z,28.00
2018-07-02T19:32:14.689Z,27.90
2018-07-02T19:34:43.814Z,27.80
2018-07-02T19:37:12.674Z,27.70
2018-07-02T19:39:42.194Z,27.60
2018-07-02T19:42:11.299Z,27.40
2018-07-02T19:44:40.589Z,27.30
2018-07-02T19:47:09.844Z,27.20
2018-07-02T19:49:39.332Z,27.00
2018-07-02T19:52:08.867Z,26.90
2018-07-02T19:54:38.104Z,26.80
2018-07-02T19:57:07.544Z,26.70
2018-07-02T19:59:36.915Z,26.60
2018-07-02T20:02:06.262Z,26.50
2018-07-02T20:04:35.751Z,26.40
2018-07-02T20:07:06.947Z,26.30
2018-07-02T20:09:36.379Z,26.20
2018-07-02T20:12:06.059Z,26.10
2018-07-02T20:14:35.409Z,26.00
2018-07-02T20:17:04.599Z,25.90
2018-07-02T20:19:34.682Z,25.80
2018-07-02T20:22:03.886Z,25.70
2018-07-02T20:24:33.238Z,25.70
2018-07-02T20:27:02.337Z,25.60
2018-07-02T20:29:33.232Z,25.50
2018-07-02T20:32:02.355Z,25.40
2018-07-02T20:34:31.570Z,25.40
2018-07-02T20:37:00.788Z,25.30
2018-07-02T20:39:30.499Z,25.20
2018-07-02T20:41:59.696Z,25.10
2018-07-02T20:44:29.381Z,25.10
2018-07-02T20:46:58.472Z,25.00
2018-07-02T20:49:28.198Z,24.90
2018-07-02T20:51:58.244Z,24.80
2018-07-02T20:54:28.186Z,24.70
2018-07-02T20:56:58.099Z,24.50
2018-07-02T20:59:27.020Z,24.50
2018-07-02T21:01:56.757Z,24.30
2018-07-02T21:04:26.233Z,24.20
2018-07-02T21:11:53.444Z,23.90
2018-07-02T21:14:22.903Z,23.80
2018-07-02T21:16:52.480Z,23.80
2018-07-02T21:19:21.707Z,23.70
2018-07-02T21:21:50.717Z,23.60
2018-07-02T21:24:20.054Z,23.60
2018-07-02T21:26:49.125Z,23.50
2018-07-02T21:29:19.650Z,23.40
2018-07-02T21:31:48.455Z,23.30
2018-07-02T21:34:18.947Z,23.30
2018-07-02T21:36:49.405Z,23.20
2018-07-02T21:39:18.288Z,23.20
2018-07-02T21:41:48.550Z,23.20
2018-07-02T21:44:17.911Z,23.20
2018-07-02T21:46:47.209Z,23.10
2018-07-02T21:49:16.668Z,23.00
2018-07-02T21:51:45.579Z,22.90
2018-07-02T21:54:15.047Z,22.90
2018-07-02T21:56:44.314Z,22.80
2018-07-02T21:59:16.099Z,22.70
2018-07-02T22:01:45.144Z,22.60
2018-07-02T22:04:14.940Z,22.50
2018-07-02T22:06:44.460Z,22.50
2018-07-02T22:09:13.850Z,22.40
2018-07-02T22:11:43.541Z,22.40
2018-07-02T22:14:12.870Z,22.30
2018-07-02T22:16:41.873Z,22.30
2018-07-02T22:19:10.999Z,22.20
2018-07-02T22:21:40.226Z,22.10
2018-07-02T22:24:09.857Z,22.10
2018-07-02T22:26:38.854Z,22.00
2018-07-02T22:29:08.107Z,22.00
2018-07-02T22:36:33.975Z,21.90
2018-07-02T22:39:04.275Z,21.70
2018-07-02T22:41:34.589Z,21.70
2018-07-02T22:44:04.424Z,21.60
2018-07-02T22:46:33.704Z,21.50
2018-07-02T22:49:03.027Z,21.50
2018-07-02T22:51:32.087Z,21.40
2018-07-02T22:54:01.524Z,21.40
2018-07-02T22:56:31.167Z,21.30
2018-07-02T22:59:00.361Z,21.30
2018-07-02T23:01:29.342Z,21.20
2018-07-02T23:03:58.388Z,21.20
2018-07-02T23:06:27.927Z,21.10
2018-07-02T23:08:57.413Z,21.10
2018-07-02T23:11:26.497Z,21.00
2018-07-02T23:13:56.250Z,20.90
2018-07-02T23:16:25.198Z,20.90
2018-07-02T23:18:54.118Z,20.90
2018-07-02T23:23:51.929Z,20.70
2018-07-02T23:26:21.464Z,20.70
2018-07-02T23:28:50.844Z,20.60
2018-07-02T23:33:49.852Z,20.50
2018-07-02T23:36:19.839Z,20.50
2018-07-02T23:38:49.277Z,20.40
2018-07-02T23:41:18.613Z,20.40
2018-07-02T23:43:47.753Z,20.30
2018-07-02T23:46:17.351Z,20.30
2018-07-02T23:51:15.400Z,20.20
2018-07-02T23:53:44.433Z,20.10
2018-07-02T23:56:14.097Z,20.10
2018-07-02T23:58:43.180Z,20.10
